sensor_id;sensor_type;location;lat;lon;timestamp;P1;durP1;ratioP1;P2;durP2;ratioP2
38513;SDS011;24282;48.400;10.808;2023-05-16T00:02:07;2.87;;;2.40;;
38513;SDS011;24282;48.400;10.808;2023-05-16T00:04:34;4.43;;;2.37;;
38513;SDS011;24282;48.400;10.808;2023-05-16T00:07:00;2.30;;;1.90;;
38513;SDS011;24282;48.400;10.808;2023-05-16T00:09:26;3.70;;;2.70;;
38513;SDS011;24282;48.400;10.808;2023-05-16T00:11:52;3.07;;;2.20;;
38513;SDS011;24282;48.400;10.808;2023-05-16T00:14:17;4.00;;;2.60;;
38513;SDS011;24282;48.400;10.808;2023-05-16T00:16:44;4.27;;;3.10;;
38513;SDS011;24282;48.400;10.808;2023-05-16T00:19:09;3.80;;;2.53;;
38513;SDS011;24282;48.400;10.808;2023-05-16T00:21:35;3.43;;;2.97;;
38513;SDS011;24282;48.400;10.808;2023-05-16T00:24:02;3.33;;;2.90;;
38513;SDS011;24282;48.400;10.808;2023-05-16T00:26:29;3.53;;;3.13;;
38513;SDS011;24282;48.400;10.808;2023-05-16T00:28:55;3.63;;;2.90;;
38513;SDS011;24282;48.400;10.808;2023-05-16T00:31:20;3.63;;;2.97;;
38513;SDS011;24282;48.400;10.808;2023-05-16T00:33:46;3.70;;;3.30;;
38513;SDS011;24282;48.400;10.808;2023-05-16T00:36:12;3.67;;;2.93;;
38513;SDS011;24282;48.400;10.808;2023-05-16T00:38:38;3.47;;;3.13;;
38513;SDS011;24282;48.400;10.808;2023-05-16T00:41:04;3.63;;;3.10;;
38513;SDS011;24282;48.400;10.808;2023-05-16T00:43:29;4.00;;;3.40;;
38513;SDS011;24282;48.400;10.808;2023-05-16T00:45:55;4.03;;;3.17;;
38513;SDS011;24282;48.400;10.808;2023-05-16T00:48:21;3.53;;;3.07;;
38513;SDS011;24282;48.400;10.808;2023-05-16T00:50:48;3.67;;;2.70;;
38513;SDS011;24282;48.400;10.808;2023-05-16T00:53:14;3.77;;;2.97;;
38513;SDS011;24282;48.400;10.808;2023-05-16T00:55:40;3.43;;;3.00;;
38513;SDS011;24282;48.400;10.808;2023-05-16T00:58:06;3.90;;;3.27;;
38513;SDS011;24282;48.400;10.808;2023-05-16T01:00:33;4.00;;;3.03;;
38513;SDS011;24282;48.400;10.808;2023-05-16T01:03:00;4.67;;;2.70;;
38513;SDS011;24282;48.400;10.808;2023-05-16T01:05:26;4.43;;;2.60;;
38513;SDS011;24282;48.400;10.808;2023-05-16T01:07:53;3.37;;;3.00;;
38513;SDS011;24282;48.400;10.808;2023-05-16T01:10:19;4.70;;;2.80;;
38513;SDS011;24282;48.400;10.808;2023-05-16T01:13:05;3.77;;;3.27;;
38513;SDS011;24282;48.400;10.808;2023-05-16T01:15:46;3.43;;;2.87;;
38513;SDS011;24282;48.400;10.808;2023-05-16T01:18:33;3.40;;;3.00;;
38513;SDS011;24282;48.400;10.808;2023-05-16T01:21:10;4.43;;;3.27;;
38513;SDS011;24282;48.400;10.808;2023-05-16T01:26:22;3.60;;;3.30;;
38513;SDS011;24282;48.400;10.808;2023-05-16T01:28:52;4.00;;;3.57;;
38513;SDS011;24282;48.400;10.808;2023-05-16T01:31:21;4.17;;;3.30;;
38513;SDS011;24282;48.400;10.808;2023-05-16T01:33:49;6.47;;;3.43;;
38513;SDS011;24282;48.400;10.808;2023-05-16T01:36:20;4.10;;;3.53;;
38513;SDS011;24282;48.400;10.808;2023-05-16T01:44:34;3.80;;;3.40;;
38513;SDS011;24282;48.400;10.808;2023-05-16T01:47:07;3.63;;;3.00;;
38513;SDS011;24282;48.400;10.808;2023-05-16T01:52:12;3.97;;;3.33;;
38513;SDS011;24282;48.400;10.808;2023-05-16T01:54:44;3.85;;;3.25;;
38513;SDS011;24282;48.400;10.808;2023-05-16T01:57:11;3.83;;;2.93;;
38513;SDS011;24282;48.400;10.808;2023-05-16T01:59:38;3.70;;;3.13;;
38513;SDS011;24282;48.400;10.808;2023-05-16T02:02:07;3.77;;;3.27;;
38513;SDS011;24282;48.400;10.808;2023-05-16T02:04:32;4.27;;;3.50;;
38513;SDS011;24282;48.400;10.808;2023-05-16T02:06:58;4.87;;;3.50;;
38513;SDS011;24282;48.400;10.808;2023-05-16T02:09:26;5.23;;;3.37;;
38513;SDS011;24282;48.400;10.808;2023-05-16T02:11:51;3.20;;;2.60;;
38513;SDS011;24282;48.400;10.808;2023-05-16T02:14:17;3.23;;;2.90;;
38513;SDS011;24282;48.400;10.808;2023-05-16T02:16:43;3.60;;;3.00;;
38513;SDS011;24282;48.400;10.808;2023-05-16T02:19:09;3.80;;;3.30;;
38513;SDS011;24282;48.400;10.808;2023-05-16T02:21:37;3.90;;;2.80;;
38513;SDS011;24282;48.400;10.808;2023-05-16T02:24:03;4.13;;;3.30;;
38513;SDS011;24282;48.400;10.808;2023-05-16T02:26:29;3.90;;;3.30;;
38513;SDS011;24282;48.400;10.808;2023-05-16T02:28:55;6.63;;;3.30;;
38513;SDS011;24282;48.400;10.808;2023-05-16T02:31:27;3.93;;;3.53;;
38513;SDS011;24282;48.400;10.808;2023-05-16T02:33:54;5.15;;;3.70;;
38513;SDS011;24282;48.400;10.808;2023-05-16T02:36:20;3.83;;;2.90;;
38513;SDS011;24282;48.400;10.808;2023-05-16T02:38:46;3.67;;;2.83;;
38513;SDS011;24282;48.400;10.808;2023-05-16T02:41:12;3.67;;;3.17;;
38513;SDS011;24282;48.400;10.808;2023-05-16T02:43:38;3.87;;;3.37;;
38513;SDS011;24282;48.400;10.808;2023-05-16T02:46:04;6.03;;;3.00;;
38513;SDS011;24282;48.400;10.808;2023-05-16T02:48:43;3.83;;;3.37;;
38513;SDS011;24282;48.400;10.808;2023-05-16T02:51:09;5.57;;;3.60;;
38513;SDS011;24282;48.400;10.808;2023-05-16T02:53:35;4.17;;;3.67;;
38513;SDS011;24282;48.400;10.808;2023-05-16T02:56:04;4.23;;;3.83;;
38513;SDS011;24282;48.400;10.808;2023-05-16T02:58:31;4.97;;;4.30;;
38513;SDS011;24282;48.400;10.808;2023-05-16T03:00:57;4.80;;;4.23;;
38513;SDS011;24282;48.400;10.808;2023-05-16T03:03:23;4.70;;;4.20;;
38513;SDS011;24282;48.400;10.808;2023-05-16T03:05:48;4.57;;;4.17;;
38513;SDS011;24282;48.400;10.808;2023-05-16T03:08:15;4.40;;;4.00;;
38513;SDS011;24282;48.400;10.808;2023-05-16T03:10:41;4.27;;;3.87;;
38513;SDS011;24282;48.400;10.808;2023-05-16T03:13:06;5.90;;;3.50;;
38513;SDS011;24282;48.400;10.808;2023-05-16T03:15:32;4.80;;;4.10;;
38513;SDS011;24282;48.400;10.808;2023-05-16T03:17:58;5.70;;;3.90;;
38513;SDS011;24282;48.400;10.808;2023-05-16T03:20:23;5.40;;;4.53;;
38513;SDS011;24282;48.400;10.808;2023-05-16T03:22:49;4.40;;;3.97;;
38513;SDS011;24282;48.400;10.808;2023-05-16T03:25:15;4.53;;;3.90;;
38513;SDS011;24282;48.400;10.808;2023-05-16T03:27:41;4.43;;;3.83;;
38513;SDS011;24282;48.400;10.808;2023-05-16T03:30:07;4.63;;;4.10;;
38513;SDS011;24282;48.400;10.808;2023-05-16T03:32:33;4.57;;;4.03;;
38513;SDS011;24282;48.400;10.808;2023-05-16T03:35:00;4.53;;;4.13;;
38513;SDS011;24282;48.400;10.808;2023-05-16T03:37:25;4.97;;;4.47;;
38513;SDS011;24282;48.400;10.808;2023-05-16T03:39:52;5.33;;;4.47;;
38513;SDS011;24282;48.400;10.808;2023-05-16T03:42:17;5.40;;;4.70;;
38513;SDS011;24282;48.400;10.808;2023-05-16T03:44:43;5.53;;;5.00;;
38513;SDS011;24282;48.400;10.808;2023-05-16T03:47:10;6.20;;;5.43;;
38513;SDS011;24282;48.400;10.808;2023-05-16T03:49:35;6.17;;;5.57;;
38513;SDS011;24282;48.400;10.808;2023-05-16T03:52:02;5.97;;;4.67;;
38513;SDS011;24282;48.400;10.808;2023-05-16T03:54:31;4.87;;;4.40;;
38513;SDS011;24282;48.400;10.808;2023-05-16T03:56:57;3.93;;;3.53;;
38513;SDS011;24282;48.400;10.808;2023-05-16T03:59:22;4.40;;;3.40;;
38513;SDS011;24282;48.400;10.808;2023-05-16T04:01:48;4.70;;;3.50;;
38513;SDS011;24282;48.400;10.808;2023-05-16T04:04:14;3.97;;;3.30;;
38513;SDS011;24282;48.400;10.808;2023-05-16T04:06:40;3.63;;;3.13;;
38513;SDS011;24282;48.400;10.808;2023-05-16T04:09:06;4.07;;;3.27;;
38513;SDS011;24282;48.400;10.808;2023-05-16T04:11:38;3.70;;;3.10;;
38513;SDS011;24282;48.400;10.808;2023-05-16T04:14:03;4.20;;;3.47;;
38513;SDS011;24282;48.400;10.808;2023-05-16T04:16:29;4.20;;;3.10;;
38513;SDS011;24282;48.400;10.808;2023-05-16T04:18:55;4.13;;;3.33;;
38513;SDS011;24282;48.400;10.808;2023-05-16T04:21:21;4.13;;;3.60;;
38513;SDS011;24282;48.400;10.808;2023-05-16T04:23:47;3.70;;;3.20;;
38513;SDS011;24282;48.400;10.808;2023-05-16T04:26:13;4.70;;;4.07;;
38513;SDS011;24282;48.400;10.808;2023-05-16T04:28:38;4.03;;;3.63;;
38513;SDS011;24282;48.400;10.808;2023-05-16T04:31:05;4.40;;;3.93;;
38513;SDS011;24282;48.400;10.808;2023-05-16T04:33:32;4.13;;;3.63;;
38513;SDS011;24282;48.400;10.808;2023-05-16T04:35:58;3.70;;;3.30;;
38513;SDS011;24282;48.400;10.808;2023-05-16T04:38:24;7.67;;;4.23;;
38513;SDS011;24282;48.400;10.808;2023-05-16T04:40:50;4.40;;;3.90;;
38513;SDS011;24282;48.400;10.808;2023-05-16T04:43:17;4.73;;;4.20;;
38513;SDS011;24282;48.400;10.808;2023-05-16T04:45:43;4.70;;;3.97;;
38513;SDS011;24282;48.400;10.808;2023-05-16T04:48:09;4.37;;;3.97;;
38513;SDS011;24282;48.400;10.808;2023-05-16T04:50:36;5.20;;;4.07;;
38513;SDS011;24282;48.400;10.808;2023-05-16T04:53:02;4.83;;;4.30;;
38513;SDS011;24282;48.400;10.808;2023-05-16T04:55:27;4.50;;;4.07;;
38513;SDS011;24282;48.400;10.808;2023-05-16T04:57:53;5.83;;;5.00;;
38513;SDS011;24282;48.400;10.808;2023-05-16T05:00:19;5.60;;;5.03;;
38513;SDS011;24282;48.400;10.808;2023-05-16T05:02:45;6.53;;;4.97;;
38513;SDS011;24282;48.400;10.808;2023-05-16T05:05:11;5.30;;;4.80;;
38513;SDS011;24282;48.400;10.808;2023-05-16T05:07:36;5.93;;;4.63;;
38513;SDS011;24282;48.400;10.808;2023-05-16T05:10:02;5.67;;;5.17;;
38513;SDS011;24282;48.400;10.808;2023-05-16T05:12:28;4.90;;;4.40;;
38513;SDS011;24282;48.400;10.808;2023-05-16T05:14:54;5.70;;;5.07;;
38513;SDS011;24282;48.400;10.808;2023-05-16T05:17:21;6.40;;;5.37;;
38513;SDS011;24282;48.400;10.808;2023-05-16T05:19:47;8.40;;;6.00;;
38513;SDS011;24282;48.400;10.808;2023-05-16T05:22:13;6.63;;;5.53;;
38513;SDS011;24282;48.400;10.808;2023-05-16T05:24:39;6.30;;;5.70;;
38513;SDS011;24282;48.400;10.808;2023-05-16T05:27:05;6.70;;;6.00;;
38513;SDS011;24282;48.400;10.808;2023-05-16T05:29:30;5.60;;;5.10;;
38513;SDS011;24282;48.400;10.808;2023-05-16T05:31:56;6.50;;;4.83;;
38513;SDS011;24282;48.400;10.808;2023-05-16T05:34:22;5.60;;;5.03;;
38513;SDS011;24282;48.400;10.808;2023-05-16T05:36:47;6.43;;;5.13;;
38513;SDS011;24282;48.400;10.808;2023-05-16T05:39:13;5.53;;;5.03;;
38513;SDS011;24282;48.400;10.808;2023-05-16T05:41:39;6.07;;;5.47;;
38513;SDS011;24282;48.400;10.808;2023-05-16T05:44:06;5.30;;;4.70;;
38513;SDS011;24282;48.400;10.808;2023-05-16T05:46:32;6.03;;;5.43;;
38513;SDS011;24282;48.400;10.808;2023-05-16T05:48:58;5.93;;;5.27;;
38513;SDS011;24282;48.400;10.808;2023-05-16T05:51:24;7.57;;;5.00;;
38513;SDS011;24282;48.400;10.808;2023-05-16T05:53:51;5.13;;;4.63;;
38513;SDS011;24282;48.400;10.808;2023-05-16T05:56:17;4.93;;;4.40;;
38513;SDS011;24282;48.400;10.808;2023-05-16T05:58:42;5.97;;;5.13;;
38513;SDS011;24282;48.400;10.808;2023-05-16T06:01:09;6.23;;;5.47;;
38513;SDS011;24282;48.400;10.808;2023-05-16T06:03:35;5.07;;;4.43;;
38513;SDS011;24282;48.400;10.808;2023-05-16T06:06:02;6.40;;;5.80;;
38513;SDS011;24282;48.400;10.808;2023-05-16T06:08:28;6.07;;;5.27;;
38513;SDS011;24282;48.400;10.808;2023-05-16T06:10:54;5.97;;;5.37;;
38513;SDS011;24282;48.400;10.808;2023-05-16T06:13:20;6.27;;;5.67;;
38513;SDS011;24282;48.400;10.808;2023-05-16T06:15:52;6.20;;;5.33;;
38513;SDS011;24282;48.400;10.808;2023-05-16T06:18:19;6.28;;;5.65;;
38513;SDS011;24282;48.400;10.808;2023-05-16T06:20:45;6.87;;;5.87;;
38513;SDS011;24282;48.400;10.808;2023-05-16T06:23:11;8.23;;;6.47;;
38513;SDS011;24282;48.400;10.808;2023-05-16T06:25:37;9.47;;;7.73;;
38513;SDS011;24282;48.400;10.808;2023-05-16T06:28:02;7.43;;;6.63;;
38513;SDS011;24282;48.400;10.808;2023-05-16T06:30:28;8.27;;;7.47;;
38513;SDS011;24282;48.400;10.808;2023-05-16T06:32:54;7.90;;;7.20;;
38513;SDS011;24282;48.400;10.808;2023-05-16T06:35:20;7.10;;;6.40;;
38513;SDS011;24282;48.400;10.808;2023-05-16T06:37:46;7.27;;;6.57;;
38513;SDS011;24282;48.400;10.808;2023-05-16T06:40:11;9.93;;;6.90;;
38513;SDS011;24282;48.400;10.808;2023-05-16T06:42:38;7.60;;;6.80;;
38513;SDS011;24282;48.400;10.808;2023-05-16T06:45:03;6.73;;;5.67;;
38513;SDS011;24282;48.400;10.808;2023-05-16T06:47:30;7.23;;;6.20;;
38513;SDS011;24282;48.400;10.808;2023-05-16T06:49:55;6.43;;;5.73;;
38513;SDS011;24282;48.400;10.808;2023-05-16T06:52:21;7.23;;;6.10;;
38513;SDS011;24282;48.400;10.808;2023-05-16T06:54:47;6.53;;;5.90;;
38513;SDS011;24282;48.400;10.808;2023-05-16T06:57:12;6.37;;;5.70;;
38513;SDS011;24282;48.400;10.808;2023-05-16T06:59:38;6.23;;;5.63;;
38513;SDS011;24282;48.400;10.808;2023-05-16T07:02:05;6.83;;;6.13;;
38513;SDS011;24282;48.400;10.808;2023-05-16T07:04:31;7.07;;;6.37;;
38513;SDS011;24282;48.400;10.808;2023-05-16T07:06:57;6.73;;;6.07;;
38513;SDS011;24282;48.400;10.808;2023-05-16T07:09:23;7.40;;;5.93;;
38513;SDS011;24282;48.400;10.808;2023-05-16T07:11:48;7.13;;;5.57;;
38513;SDS011;24282;48.400;10.808;2023-05-16T07:14:14;6.23;;;5.63;;
38513;SDS011;24282;48.400;10.808;2023-05-16T07:16:40;5.83;;;5.23;;
38513;SDS011;24282;48.400;10.808;2023-05-16T07:19:06;6.13;;;5.33;;
38513;SDS011;24282;48.400;10.808;2023-05-16T07:21:32;6.00;;;5.40;;
38513;SDS011;24282;48.400;10.808;2023-05-16T07:23:58;7.00;;;6.30;;
38513;SDS011;24282;48.400;10.808;2023-05-16T07:26:23;5.83;;;5.27;;
38513;SDS011;24282;48.400;10.808;2023-05-16T07:28:49;7.20;;;6.50;;
38513;SDS011;24282;48.400;10.808;2023-05-16T07:31:15;7.07;;;6.13;;
38513;SDS011;24282;48.400;10.808;2023-05-16T07:33:41;7.33;;;5.43;;
38513;SDS011;24282;48.400;10.808;2023-05-16T07:36:08;6.27;;;5.67;;
38513;SDS011;24282;48.400;10.808;2023-05-16T07:38:34;7.03;;;5.83;;
38513;SDS011;24282;48.400;10.808;2023-05-16T07:41:00;6.93;;;6.33;;
38513;SDS011;24282;48.400;10.808;2023-05-16T07:43:26;6.87;;;6.10;;
38513;SDS011;24282;48.400;10.808;2023-05-16T07:45:52;6.83;;;6.23;;
38513;SDS011;24282;48.400;10.808;2023-05-16T07:48:17;6.40;;;5.60;;
38513;SDS011;24282;48.400;10.808;2023-05-16T07:50:43;7.83;;;7.03;;
38513;SDS011;24282;48.400;10.808;2023-05-16T07:53:09;8.03;;;5.53;;
38513;SDS011;24282;48.400;10.808;2023-05-16T07:55:34;6.30;;;5.70;;
38513;SDS011;24282;48.400;10.808;2023-05-16T07:58:00;7.90;;;5.70;;
38513;SDS011;24282;48.400;10.808;2023-05-16T08:00:27;6.13;;;5.50;;
38513;SDS011;24282;48.400;10.808;2023-05-16T08:02:53;6.17;;;5.57;;
38513;SDS011;24282;48.400;10.808;2023-05-16T08:05:18;5.85;;;5.25;;
38513;SDS011;24282;48.400;10.808;2023-05-16T08:07:44;9.88;;;6.85;;
38513;SDS011;24282;48.400;10.808;2023-05-16T08:10:10;7.00;;;5.97;;
38513;SDS011;24282;48.400;10.808;2023-05-16T08:12:36;6.07;;;5.47;;
38513;SDS011;24282;48.400;10.808;2023-05-16T08:15:02;6.43;;;5.55;;
38513;SDS011;24282;48.400;10.808;2023-05-16T08:17:28;9.55;;;6.35;;
38513;SDS011;24282;48.400;10.808;2023-05-16T08:19:54;5.63;;;5.13;;
38513;SDS011;24282;48.400;10.808;2023-05-16T08:22:20;5.55;;;5.05;;
38513;SDS011;24282;48.400;10.808;2023-05-16T08:24:46;5.90;;;5.28;;
38513;SDS011;24282;48.400;10.808;2023-05-16T08:27:12;6.63;;;5.13;;
38513;SDS011;24282;48.400;10.808;2023-05-16T08:29:37;6.88;;;6.18;;
38513;SDS011;24282;48.400;10.808;2023-05-16T08:32:04;7.32;;;6.15;;
38513;SDS011;24282;48.400;10.808;2023-05-16T08:34:30;5.15;;;4.65;;
38513;SDS011;24282;48.400;10.808;2023-05-16T08:36:56;5.75;;;5.07;;
38513;SDS011;24282;48.400;10.808;2023-05-16T08:39:22;6.50;;;5.40;;
38513;SDS011;24282;48.400;10.808;2023-05-16T08:41:47;5.70;;;4.65;;
38513;SDS011;24282;48.400;10.808;2023-05-16T08:44:14;6.15;;;4.55;;
38513;SDS011;24282;48.400;10.808;2023-05-16T08:46:48;6.03;;;5.43;;
38513;SDS011;24282;48.400;10.808;2023-05-16T08:49:17;6.60;;;5.97;;
38513;SDS011;24282;48.400;10.808;2023-05-16T08:51:43;6.97;;;6.28;;
38513;SDS011;24282;48.400;10.808;2023-05-16T08:54:11;6.10;;;5.47;;
38513;SDS011;24282;48.400;10.808;2023-05-16T08:56:39;8.10;;;6.72;;
38513;SDS011;24282;48.400;10.808;2023-05-16T08:59:06;6.30;;;5.30;;
38513;SDS011;24282;48.400;10.808;2023-05-16T09:01:32;6.38;;;5.78;;
38513;SDS011;24282;48.400;10.808;2023-05-16T09:03:59;6.57;;;5.70;;
38513;SDS011;24282;48.400;10.808;2023-05-16T09:06:25;6.68;;;5.57;;
38513;SDS011;24282;48.400;10.808;2023-05-16T09:08:54;5.95;;;4.95;;
38513;SDS011;24282;48.400;10.808;2023-05-16T09:11:20;6.82;;;6.03;;
38513;SDS011;24282;48.400;10.808;2023-05-16T09:13:46;5.50;;;5.00;;
38513;SDS011;24282;48.400;10.808;2023-05-16T09:16:14;5.15;;;4.65;;
38513;SDS011;24282;48.400;10.808;2023-05-16T09:18:42;6.07;;;5.57;;
38513;SDS011;24282;48.400;10.808;2023-05-16T09:21:10;5.57;;;5.05;;
38513;SDS011;24282;48.400;10.808;2023-05-16T09:23:37;6.38;;;5.60;;
38513;SDS011;24282;48.400;10.808;2023-05-16T09:26:06;7.13;;;5.40;;
38513;SDS011;24282;48.400;10.808;2023-05-16T09:28:36;5.55;;;5.05;;
38513;SDS011;24282;48.400;10.808;2023-05-16T09:31:03;11.02;;;6.15;;
38513;SDS011;24282;48.400;10.808;2023-05-16T09:33:28;7.85;;;6.13;;
38513;SDS011;24282;48.400;10.808;2023-05-16T09:35:58;6.25;;;5.65;;
38513;SDS011;24282;48.400;10.808;2023-05-16T09:38:25;6.25;;;5.30;;
38513;SDS011;24282;48.400;10.808;2023-05-16T09:40:55;6.07;;;5.05;;
38513;SDS011;24282;48.400;10.808;2023-05-16T09:43:24;5.50;;;4.95;;
38513;SDS011;24282;48.400;10.808;2023-05-16T09:45:51;6.55;;;5.72;;
38513;SDS011;24282;48.400;10.808;2023-05-16T09:48:17;6.82;;;5.90;;
38513;SDS011;24282;48.400;10.808;2023-05-16T09:50:45;5.93;;;5.32;;
38513;SDS011;24282;48.400;10.808;2023-05-16T09:53:13;8.52;;;5.90;;
38513;SDS011;24282;48.400;10.808;2023-05-16T09:55:39;5.82;;;5.25;;
38513;SDS011;24282;48.400;10.808;2023-05-16T09:58:05;7.18;;;5.30;;
38513;SDS011;24282;48.400;10.808;2023-05-16T10:00:32;5.30;;;4.80;;
38513;SDS011;24282;48.400;10.808;2023-05-16T10:02:59;6.32;;;4.57;;
38513;SDS011;24282;48.400;10.808;2023-05-16T10:05:26;4.95;;;4.30;;
38513;SDS011;24282;48.400;10.808;2023-05-16T10:07:53;4.93;;;4.38;;
38513;SDS011;24282;48.400;10.808;2023-05-16T10:10:20;6.25;;;5.10;;
38513;SDS011;24282;48.400;10.808;2023-05-16T10:12:47;5.22;;;4.35;;
38513;SDS011;24282;48.400;10.808;2023-05-16T10:15:14;5.43;;;3.60;;
38513;SDS011;24282;48.400;10.808;2023-05-16T10:17:41;4.78;;;3.63;;
38513;SDS011;24282;48.400;10.808;2023-05-16T10:20:10;5.05;;;4.55;;
38513;SDS011;24282;48.400;10.808;2023-05-16T10:22:39;4.15;;;3.42;;
38513;SDS011;24282;48.400;10.808;2023-05-16T10:25:08;4.38;;;3.92;;
38513;SDS011;24282;48.400;10.808;2023-05-16T10:27:52;5.75;;;5.15;;
38513;SDS011;24282;48.400;10.808;2023-05-16T10:30:19;5.50;;;4.03;;
38513;SDS011;24282;48.400;10.808;2023-05-16T10:32:46;5.18;;;4.68;;
38513;SDS011;24282;48.400;10.808;2023-05-16T10:35:13;5.25;;;4.70;;
38513;SDS011;24282;48.400;10.808;2023-05-16T10:37:38;4.82;;;4.32;;
38513;SDS011;24282;48.400;10.808;2023-05-16T10:40:06;4.90;;;4.10;;
38513;SDS011;24282;48.400;10.808;2023-05-16T10:42:33;4.97;;;4.45;;
38513;SDS011;24282;48.400;10.808;2023-05-16T10:55:49;6.18;;;4.22;;
38513;SDS011;24282;48.400;10.808;2023-05-16T11:06:25;5.07;;;4.57;;
38513;SDS011;24282;48.400;10.808;2023-05-16T11:11:42;4.72;;;3.67;;
38513;SDS011;24282;48.400;10.808;2023-05-16T11:14:08;5.57;;;4.43;;
38513;SDS011;24282;48.400;10.808;2023-05-16T11:16:43;4.55;;;3.92;;
38513;SDS011;24282;48.400;10.808;2023-05-16T11:22:04;4.88;;;4.38;;
38513;SDS011;24282;48.400;10.808;2023-05-16T11:24:30;6.60;;;4.90;;
38513;SDS011;24282;48.400;10.808;2023-05-16T11:26:59;5.15;;;4.65;;
38513;SDS011;24282;48.400;10.808;2023-05-16T11:29:33;5.18;;;3.88;;
38513;SDS011;24282;48.400;10.808;2023-05-16T11:32:01;4.30;;;3.90;;
38513;SDS011;24282;48.400;10.808;2023-05-16T11:34:29;6.18;;;4.88;;
38513;SDS011;24282;48.400;10.808;2023-05-16T11:39:29;5.38;;;4.22;;
38513;SDS011;24282;48.400;10.808;2023-05-16T11:41:55;4.50;;;4.10;;
38513;SDS011;24282;48.400;10.808;2023-05-16T11:44:21;4.50;;;4.10;;
38513;SDS011;24282;48.400;10.808;2023-05-16T11:46:47;4.63;;;4.13;;
38513;SDS011;24282;48.400;10.808;2023-05-16T11:49:13;5.10;;;4.47;;
38513;SDS011;24282;48.400;10.808;2023-05-16T11:51:42;6.10;;;5.50;;
38513;SDS011;24282;48.400;10.808;2023-05-16T11:54:08;6.63;;;5.57;;
38513;SDS011;24282;48.400;10.808;2023-05-16T11:56:34;7.53;;;6.82;;
38513;SDS011;24282;48.400;10.808;2023-05-16T11:59:01;8.55;;;6.75;;
38513;SDS011;24282;48.400;10.808;2023-05-16T12:01:30;8.32;;;7.53;;
38513;SDS011;24282;48.400;10.808;2023-05-16T12:04:00;9.48;;;8.27;;
38513;SDS011;24282;48.400;10.808;2023-05-16T12:06:26;8.65;;;7.85;;
38513;SDS011;24282;48.400;10.808;2023-05-16T12:08:53;8.65;;;7.80;;
38513;SDS011;24282;48.400;10.808;2023-05-16T12:11:19;9.95;;;9.05;;
38513;SDS011;24282;48.400;10.808;2023-05-16T12:13:46;9.85;;;8.93;;
38513;SDS011;24282;48.400;10.808;2023-05-16T12:16:13;9.55;;;8.65;;
38513;SDS011;24282;48.400;10.808;2023-05-16T12:18:39;8.32;;;7.53;;
38513;SDS011;24282;48.400;10.808;2023-05-16T12:21:05;8.98;;;8.18;;
38513;SDS011;24282;48.400;10.808;2023-05-16T12:23:34;10.77;;;9.77;;
38513;SDS011;24282;48.400;10.808;2023-05-16T12:26:01;12.27;;;10.32;;
38513;SDS011;24282;48.400;10.808;2023-05-16T12:28:31;10.88;;;9.77;;
38513;SDS011;24282;48.400;10.808;2023-05-16T12:30:58;11.75;;;10.75;;
38513;SDS011;24282;48.400;10.808;2023-05-16T12:33:24;11.93;;;10.82;;
38513;SDS011;24282;48.400;10.808;2023-05-16T12:35:51;10.88;;;9.88;;
38513;SDS011;24282;48.400;10.808;2023-05-16T12:38:18;11.45;;;10.20;;
38513;SDS011;24282;48.400;10.808;2023-05-16T12:40:45;11.07;;;10.07;;
38513;SDS011;24282;48.400;10.808;2023-05-16T12:43:21;9.88;;;8.98;;
38513;SDS011;24282;48.400;10.808;2023-05-16T12:48:16;11.15;;;10.05;;
38513;SDS011;24282;48.400;10.808;2023-05-16T12:50:42;10.63;;;9.63;;
38513;SDS011;24282;48.400;10.808;2023-05-16T12:53:14;12.02;;;10.93;;
38513;SDS011;24282;48.400;10.808;2023-05-16T12:55:42;10.18;;;9.18;;
38513;SDS011;24282;48.400;10.808;2023-05-16T12:58:09;11.75;;;10.60;;
38513;SDS011;24282;48.400;10.808;2023-05-16T13:00:35;24.92;;;8.85;;
38513;SDS011;24282;48.400;10.808;2023-05-16T13:03:02;8.80;;;7.90;;
38513;SDS011;24282;48.400;10.808;2023-05-16T13:05:28;13.38;;;7.30;;
38513;SDS011;24282;48.400;10.808;2023-05-16T13:07:54;7.28;;;6.38;;
38513;SDS011;24282;48.400;10.808;2023-05-16T13:10:20;10.32;;;6.63;;
38513;SDS011;24282;48.400;10.808;2023-05-16T13:12:46;5.78;;;5.18;;
38513;SDS011;24282;48.400;10.808;2023-05-16T13:15:12;6.20;;;5.60;;
38513;SDS011;24282;48.400;10.808;2023-05-16T13:17:38;5.38;;;4.75;;
38513;SDS011;24282;48.400;10.808;2023-05-16T13:20:06;6.40;;;4.70;;
38513;SDS011;24282;48.400;10.808;2023-05-16T13:22:38;6.45;;;4.88;;
38513;SDS011;24282;48.400;10.808;2023-05-16T13:25:04;5.68;;;5.18;;
38513;SDS011;24282;48.400;10.808;2023-05-16T13:27:30;5.22;;;4.50;;
38513;SDS011;24282;48.400;10.808;2023-05-16T13:29:56;5.20;;;4.70;;
38513;SDS011;24282;48.400;10.808;2023-05-16T13:32:22;5.30;;;3.93;;
38513;SDS011;24282;48.400;10.808;2023-05-16T13:34:49;6.57;;;3.53;;
38513;SDS011;24282;48.400;10.808;2023-05-16T13:37:15;3.50;;;3.03;;
38513;SDS011;24282;48.400;10.808;2023-05-16T13:39:41;4.50;;;2.80;;
38513;SDS011;24282;48.400;10.808;2023-05-16T13:42:07;3.43;;;2.83;;
38513;SDS011;24282;48.400;10.808;2023-05-16T13:44:33;3.80;;;2.83;;
38513;SDS011;24282;48.400;10.808;2023-05-16T13:46:59;3.40;;;3.10;;
38513;SDS011;24282;48.400;10.808;2023-05-16T13:49:25;3.60;;;2.30;;
38513;SDS011;24282;48.400;10.808;2023-05-16T13:51:51;6.23;;;2.50;;
38513;SDS011;24282;48.400;10.808;2023-05-16T13:54:17;4.50;;;2.70;;
38513;SDS011;24282;48.400;10.808;2023-05-16T13:56:43;2.50;;;1.77;;
38513;SDS011;24282;48.400;10.808;2023-05-16T13:59:09;4.03;;;3.20;;
38513;SDS011;24282;48.400;10.808;2023-05-16T14:01:35;4.80;;;3.50;;
38513;SDS011;24282;48.400;10.808;2023-05-16T14:04:01;6.80;;;3.80;;
38513;SDS011;24282;48.400;10.808;2023-05-16T14:06:27;10.37;;;3.30;;
38513;SDS011;24282;48.400;10.808;2023-05-16T14:08:53;5.23;;;4.73;;
38513;SDS011;24282;48.400;10.808;2023-05-16T14:11:19;8.33;;;4.80;;
38513;SDS011;24282;48.400;10.808;2023-05-16T14:13:47;5.50;;;4.07;;
38513;SDS011;24282;48.400;10.808;2023-05-16T14:16:13;6.20;;;4.70;;
38513;SDS011;24282;48.400;10.808;2023-05-16T14:18:39;6.77;;;4.43;;
38513;SDS011;24282;48.400;10.808;2023-05-16T14:21:05;4.50;;;3.47;;
38513;SDS011;24282;48.400;10.808;2023-05-16T14:23:30;5.03;;;3.17;;
38513;SDS011;24282;48.400;10.808;2023-05-16T14:25:56;3.30;;;2.70;;
38513;SDS011;24282;48.400;10.808;2023-05-16T14:28:22;4.73;;;2.90;;
38513;SDS011;24282;48.400;10.808;2023-05-16T14:30:47;3.00;;;2.60;;
38513;SDS011;24282;48.400;10.808;2023-05-16T14:33:13;2.70;;;2.20;;
38513;SDS011;24282;48.400;10.808;2023-05-16T14:35:39;3.07;;;2.30;;
38513;SDS011;24282;48.400;10.808;2023-05-16T14:38:05;3.47;;;2.80;;
38513;SDS011;24282;48.400;10.808;2023-05-16T14:40:31;4.10;;;2.53;;
38513;SDS011;24282;48.400;10.808;2023-05-16T14:42:58;3.53;;;2.70;;
38513;SDS011;24282;48.400;10.808;2023-05-16T14:45:24;3.10;;;2.30;;
38513;SDS011;24282;48.400;10.808;2023-05-16T14:47:50;5.83;;;3.10;;
38513;SDS011;24282;48.400;10.808;2023-05-16T14:50:16;4.10;;;3.10;;
38513;SDS011;24282;48.400;10.808;2023-05-16T14:52:42;3.20;;;2.83;;
38513;SDS011;24282;48.400;10.808;2023-05-16T14:55:09;5.00;;;3.10;;
38513;SDS011;24282;48.400;10.808;2023-05-16T14:57:35;11.77;;;6.20;;
38513;SDS011;24282;48.400;10.808;2023-05-16T15:00:01;8.73;;;5.87;;
38513;SDS011;24282;48.400;10.808;2023-05-16T15:02:26;6.70;;;4.30;;
38513;SDS011;24282;48.400;10.808;2023-05-16T15:04:52;5.23;;;3.87;;
38513;SDS011;24282;48.400;10.808;2023-05-16T15:07:18;5.20;;;4.50;;
38513;SDS011;24282;48.400;10.808;2023-05-16T15:09:45;5.30;;;4.37;;
38513;SDS011;24282;48.400;10.808;2023-05-16T15:12:10;5.47;;;4.53;;